createdAt,value
2022-09-21T00:01:27.926Z,101350.47
2022-09-21T00:03:58.230Z,101356.69
2022-09-21T00:06:28.273Z,101359.34
2022-09-21T00:08:57.084Z,101361.22
2022-09-21T00:11:27.697Z,101364.94
2022-09-21T00:13:58.125Z,101368.81
2022-09-21T00:16:27.984Z,101365.44
2022-09-21T00:18:55.899Z,101362.91
2022-09-21T00:21:24.415Z,101367.53
2022-09-21T00:23:54.297Z,101373.88
2022-09-21T00:26:24.585Z,101373.88
2022-09-21T00:28:55.358Z,101364.22
2022-09-21T00:31:24.101Z,101373.06
2022-09-21T00:33:53.714Z,101374.94
2022-09-21T00:36:24.657Z,101380.41
2022-09-21T00:38:54.589Z,101377.91
2022-09-21T00:41:22.483Z,101376.25
2022-09-21T00:44:10.942Z,101379.84
2022-09-21T00:46:40.112Z,101372.72
2022-09-21T00:49:09.900Z,101373.75
2022-09-21T00:51:38.620Z,101380.09
2022-09-21T00:54:12.251Z,101375.84
2022-09-21T00:56:40.266Z,101373.34
2022-09-21T00:59:10.589Z,101377.78
2022-09-21T01:01:38.628Z,101382.31
2022-09-21T01:04:07.221Z,101390.38
2022-09-21T01:06:39.690Z,101395.03
2022-09-21T01:09:08.083Z,101383.78
2022-09-21T01:11:46.160Z,101389.16
2022-09-21T01:14:27.459Z,101376.88
2022-09-21T01:17:07.852Z,101386.63
2022-09-21T01:20:02.578Z,101389.66
2022-09-21T01:22:44.606Z,101381.84
2022-09-21T01:25:28.616Z,101388.88
2022-09-21T01:28:18.447Z,101386.22
2022-09-21T01:30:50.807Z,101382.50
2022-09-21T01:33:27.338Z,101384.50
2022-09-21T01:35:58.739Z,101382.94
2022-09-21T01:38:33.013Z,101378.59
2022-09-21T01:41:04.656Z,101388.44
2022-09-21T01:43:36.479Z,101387.56
2022-09-21T01:46:11.453Z,101401.69
2022-09-21T01:48:42.983Z,101388.34
2022-09-21T01:51:14.934Z,101391.75
2022-09-21T01:53:47.206Z,101382.16
2022-09-21T01:56:21.426Z,101392.75
2022-09-21T01:58:58.628Z,101399.91
2022-09-21T02:01:31.709Z,101394.75
2022-09-21T02:04:06.070Z,101396.63
2022-09-21T02:06:34.014Z,101393.09
2022-09-21T02:09:02.320Z,101396.78
2022-09-21T02:11:30.206Z,101392.44
2022-09-21T02:13:58.067Z,101395.47
2022-09-21T02:16:37.045Z,101397.47
2022-09-21T02:19:12.360Z,101403.56
2022-09-21T02:21:50.186Z,101402.69
2022-09-21T02:24:26.121Z,101403.69
2022-09-21T02:27:00.676Z,101404.81
2022-09-21T02:29:36.517Z,101404.81
2022-09-21T02:32:10.126Z,101409.16
2022-09-21T02:34:46.397Z,101412.59
2022-09-21T02:37:24.347Z,101413.78
2022-09-21T02:40:00.533Z,101414.88
2022-09-21T02:42:33.725Z,101410.34
2022-09-21T02:45:08.532Z,101405.84
2022-09-21T02:47:46.051Z,101408.41
2022-09-21T02:50:21.278Z,101409.28
2022-09-21T02:52:50.107Z,101403.97
2022-09-21T02:55:19.000Z,101410.06
2022-09-21T02:57:48.929Z,101401.38
2022-09-21T03:00:18.221Z,101408.56
2022-09-21T03:02:47.695Z,101407.69
2022-09-21T03:05:16.245Z,101409.56
2022-09-21T03:07:44.414Z,101413.19
2022-09-21T03:10:12.453Z,101422.31
2022-09-21T03:12:40.446Z,101422.38
2022-09-21T03:15:09.021Z,101423.34
2022-09-21T03:17:36.911Z,101426.13
2022-09-21T03:20:07.964Z,101431.62
2022-09-21T03:22:36.091Z,101433.34
2022-09-21T03:25:04.319Z,101436.06
2022-09-21T03:27:32.448Z,101436.00
2022-09-21T03:30:02.393Z,101434.22
2022-09-21T03:32:30.643Z,101435.16
2022-09-21T03:34:58.484Z,101437.91
2022-09-21T03:37:28.015Z,101436.25
2022-09-21T03:39:56.051Z,101438.91
2022-09-21T03:42:23.991Z,101442.56
2022-09-21T03:44:52.454Z,101441.00
2022-09-21T03:47:20.710Z,101441.03
2022-09-21T03:49:48.563Z,101444.69
2022-09-21T03:52:16.998Z,101438.66
2022-09-21T03:54:46.764Z,101439.69
2022-09-21T03:57:14.712Z,101444.22
2022-09-21T03:59:43.736Z,101446.94
2022-09-21T04:02:11.694Z,101446.00
2022-09-21T04:04:39.843Z,101455.81
2022-09-21T04:07:07.679Z,101455.81
2022-09-21T04:09:35.602Z,101456.87
2022-09-21T04:12:05.356Z,101455.13
2022-09-21T04:14:33.652Z,101451.69
2022-09-21T04:17:01.546Z,101454.41
2022-09-21T04:19:29.885Z,101462.50
2022-09-21T04:21:57.903Z,101463.44
2022-09-21T04:24:26.172Z,101463.59
2022-09-21T04:26:54.320Z,101461.88
2022-09-21T04:29:23.556Z,101466.16
2022-09-21T04:31:51.415Z,101466.16
2022-09-21T04:34:19.694Z,101460.00
2022-09-21T04:36:47.576Z,101466.09
2022-09-21T04:39:15.434Z,101462.56
2022-09-21T04:41:43.780Z,101470.38
2022-09-21T04:44:11.700Z,101471.31
2022-09-21T04:46:40.978Z,101469.56
2022-09-21T04:49:10.669Z,101464.28
2022-09-21T04:51:39.005Z,101464.22
2022-09-21T04:54:07.074Z,101474.75
2022-09-21T04:56:35.586Z,101463.44
2022-09-21T04:59:03.582Z,101467.16
2022-09-21T05:01:31.643Z,101476.97
2022-09-21T05:04:02.448Z,101469.03
2022-09-21T05:06:31.024Z,101468.16
2022-09-21T05:09:16.698Z,101481.47
2022-09-21T05:11:44.906Z,101483.19
2022-09-21T05:14:13.073Z,101484.94
2022-09-21T05:16:40.962Z,101484.00
2022-09-21T05:19:10.148Z,101479.50
2022-09-21T05:21:38.285Z,101483.78
2022-09-21T05:24:06.547Z,101497.72
2022-09-21T05:26:34.414Z,101496.75
2022-09-21T05:29:03.191Z,101493.97
2022-09-21T05:31:41.704Z,101497.34
2022-09-21T05:34:36.598Z,101495.31
2022-09-21T05:37:11.132Z,101502.22
2022-09-21T05:39:39.876Z,101501.28
2022-09-21T05:42:10.245Z,101503.00
2022-09-21T05:44:38.746Z,101503.00
2022-09-21T05:47:18.602Z,101501.22
2022-09-21T05:49:56.795Z,101504.78
2022-09-21T05:52:35.775Z,101508.16
2022-09-21T05:55:10.880Z,101502.75
2022-09-21T05:57:47.639Z,101511.25
2022-09-21T06:00:18.948Z,101510.00
2022-09-21T06:02:58.650Z,101512.34
2022-09-21T06:05:28.259Z,101517.25
2022-09-21T06:07:56.406Z,101519.50
2022-09-21T06:10:25.158Z,101520.03
2022-09-21T06:12:53.056Z,101522.22
2022-09-21T06:15:21.332Z,101513.72
2022-09-21T06:17:49.192Z,101527.28
2022-09-21T06:20:17.279Z,101520.63
2022-09-21T06:22:46.742Z,101522.78
2022-09-21T06:25:14.747Z,101523.94
2022-09-21T06:27:42.687Z,101526.88
2022-09-21T06:30:11.590Z,101537.78
2022-09-21T06:32:39.697Z,101526.53
2022-09-21T06:35:08.193Z,101532.03
2022-09-21T06:37:38.343Z,101534.91
2022-09-21T06:40:09.584Z,101534.19
2022-09-21T06:42:37.801Z,101530.69
2022-09-21T06:45:06.622Z,101534.28
2022-09-21T06:47:34.495Z,101538.81
2022-09-21T06:50:03.323Z,101531.81
2022-09-21T06:52:31.225Z,101534.59
2022-09-21T06:54:59.145Z,101531.84
2022-09-21T06:57:28.652Z,101528.37
2022-09-21T06:59:56.530Z,101539.19
2022-09-21T07:02:24.415Z,101544.75
2022-09-21T07:04:52.591Z,101541.28
2022-09-21T07:07:20.456Z,101543.78
2022-09-21T07:12:37.884Z,101550.56
2022-09-21T07:15:07.814Z,101548.56
2022-09-21T07:17:37.734Z,101552.97
2022-09-21T07:20:08.276Z,101551.13
2022-09-21T07:22:36.921Z,101548.31
2022-09-21T07:25:06.245Z,101556.88
2022-09-21T07:27:35.415Z,101551.00
2022-09-21T07:30:05.453Z,101551.78
2022-09-21T07:32:33.393Z,101555.81
2022-09-21T07:35:01.697Z,101556.94
2022-09-21T07:37:32.087Z,101559.41
2022-09-21T07:40:02.835Z,101554.25
2022-09-21T07:42:30.976Z,101551.97
2022-09-21T07:45:04.009Z,101553.00
2022-09-21T07:47:36.545Z,101559.06
2022-09-21T07:50:04.736Z,101565.13
2022-09-21T07:52:32.880Z,101557.44
2022-09-21T07:55:00.760Z,101557.91
2022-09-21T07:57:46.178Z,101559.37
2022-09-21T08:00:15.311Z,101561.97
2022-09-21T08:02:47.645Z,101557.91
2022-09-21T08:05:16.324Z,101560.69
2022-09-21T08:07:44.468Z,101559.03
2022-09-21T08:10:13.076Z,101564.06
2022-09-21T08:12:41.082Z,101560.22
2022-09-21T08:15:30.642Z,101568.22
2022-09-21T08:18:00.830Z,101570.13
2022-09-21T08:20:29.162Z,101575.25
2022-09-21T08:22:57.228Z,101575.25
2022-09-21T08:25:25.231Z,101571.56
2022-09-21T08:27:53.430Z,101578.63
2022-09-21T08:30:21.473Z,101577.13
2022-09-21T08:32:51.933Z,101576.53
2022-09-21T08:35:21.591Z,101577.78
2022-09-21T08:37:51.088Z,101578.28
2022-09-21T08:40:20.731Z,101583.63
2022-09-21T08:42:57.147Z,101574.91
2022-09-21T08:45:33.044Z,101580.13
2022-09-21T08:48:06.378Z,101576.50
2022-09-21T08:50:40.401Z,101577.28
2022-09-21T08:53:15.598Z,101588.03
2022-09-21T08:55:43.569Z,101580.22
2022-09-21T08:58:24.110Z,101584.78
2022-09-21T09:01:07.313Z,101582.03
2022-09-21T09:03:52.000Z,101576.78
2022-09-21T09:06:30.890Z,101579.81
2022-09-21T09:09:33.963Z,101571.63
2022-09-21T09:12:18.378Z,101569.78
2022-09-21T09:15:05.654Z,101575.16
2022-09-21T09:17:44.552Z,101578.00
2022-09-21T09:20:17.565Z,101563.38
2022-09-21T09:22:49.941Z,101569.44
2022-09-21T09:25:21.824Z,101567.84
2022-09-21T09:27:54.188Z,101572.59
2022-09-21T09:30:25.461Z,101568.78
2022-09-21T09:32:59.305Z,101567.44
2022-09-21T09:35:30.183Z,101571.44
2022-09-21T09:38:06.955Z,101564.22
2022-09-21T09:40:53.654Z,101570.88
2022-09-21T09:43:36.162Z,101570.25
2022-09-21T09:46:13.634Z,101571.59
2022-09-21T09:49:11.638Z,101568.00
2022-09-21T09:51:40.553Z,101570.72
2022-09-21T09:54:15.142Z,101566.69
2022-09-21T09:56:43.901Z,101563.66
2022-09-21T09:59:20.207Z,101566.69
2022-09-21T10:02:00.898Z,101562.81
2022-09-21T10:04:29.114Z,101560.72
2022-09-21T10:06:57.118Z,101562.50
2022-09-21T10:09:29.174Z,101557.81
2022-09-21T10:12:01.476Z,101568.75
2022-09-21T10:14:35.118Z,101566.91
2022-09-21T10:17:07.334Z,101565.19
2022-09-21T10:19:35.534Z,101563.81
2022-09-21T10:22:05.833Z,101555.28
2022-09-21T10:24:38.312Z,101561.88
2022-09-21T10:27:10.451Z,101562.19
2022-09-21T10:29:43.402Z,101559.41
2022-09-21T10:32:24.048Z,101557.69
2022-09-21T10:35:18.102Z,101562.00
2022-09-21T10:37:49.257Z,101565.34
2022-09-21T10:40:27.458Z,101557.16
2022-09-21T10:42:58.551Z,101551.13
2022-09-21T10:45:28.028Z,101549.59
2022-09-21T10:47:58.290Z,101551.63
2022-09-21T10:50:29.631Z,101549.88
2022-09-21T10:53:02.883Z,101547.44
2022-09-21T10:55:33.076Z,101538.19
2022-09-21T10:58:01.595Z,101543.84
2022-09-21T11:00:43.498Z,101543.59
2022-09-21T11:03:43.029Z,101545.97
2022-09-21T11:06:16.074Z,101541.03
2022-09-21T11:08:49.880Z,101536.56
2022-09-21T11:11:39.505Z,101532.19
2022-09-21T11:14:15.927Z,101534.72
2022-09-21T11:16:51.571Z,101527.91
2022-09-21T11:19:30.028Z,101532.53
2022-09-21T11:22:04.068Z,101528.13
2022-09-21T11:24:40.149Z,101531.44
2022-09-21T11:27:16.740Z,101529.72
2022-09-21T11:29:54.828Z,101525.88
2022-09-21T11:32:50.448Z,101533.25
2022-09-21T11:35:27.204Z,101530.34
2022-09-21T11:38:06.355Z,101524.56
2022-09-21T11:40:54.415Z,101528.13
2022-09-21T11:43:39.471Z,101526.28
2022-09-21T11:46:18.622Z,101523.97
2022-09-21T11:48:59.953Z,101517.72
2022-09-21T11:51:57.302Z,101521.13
2022-09-21T11:54:52.405Z,101512.06
2022-09-21T11:57:28.349Z,101519.69
2022-09-21T12:00:06.973Z,101514.75
2022-09-21T12:03:05.428Z,101517.87
2022-09-21T12:05:38.664Z,101502.38
2022-09-21T12:08:37.802Z,101503.66
2022-09-21T12:11:14.079Z,101510.56
2022-09-21T12:13:55.751Z,101506.59
2022-09-21T12:16:35.116Z,101509.13
2022-09-21T12:19:10.595Z,101506.41
2022-09-21T12:21:42.540Z,101501.87
2022-09-21T12:24:17.898Z,101497.34
2022-09-21T12:26:51.190Z,101495.66
2022-09-21T12:29:25.260Z,101491.69
2022-09-21T12:32:00.744Z,101486.44
2022-09-21T12:34:35.365Z,101486.72
2022-09-21T12:37:11.245Z,101492.69
2022-09-21T12:39:44.799Z,101488.84
2022-09-21T12:42:25.750Z,101487.44
2022-09-21T12:44:57.963Z,101481.72
2022-09-21T12:47:38.202Z,101483.00
2022-09-21T12:50:17.350Z,101486.69
2022-09-21T12:52:46.081Z,101488.09
2022-09-21T12:55:29.352Z,101484.13
2022-09-21T12:58:15.207Z,101484.28
2022-09-21T13:00:56.383Z,101472.78
2022-09-21T13:03:33.105Z,101476.31
2022-09-21T13:06:27.597Z,101478.59
2022-09-21T13:08:56.260Z,101465.75
2022-09-21T13:11:24.799Z,101465.59
2022-09-21T13:13:59.344Z,101468.28
2022-09-21T13:16:30.373Z,101464.06
2022-09-21T13:19:01.744Z,101459.94
2022-09-21T13:21:32.322Z,101463.41
2022-09-21T13:24:02.184Z,101462.38
2022-09-21T13:26:35.714Z,101462.53
2022-09-21T13:29:36.526Z,101459.38
2022-09-21T13:32:21.705Z,101450.13
2022-09-21T13:34:51.539Z,101448.69
2022-09-21T13:37:32.630Z,101457.91
2022-09-21T13:40:43.555Z,101438.03
2022-09-21T13:43:19.180Z,101437.59
2022-09-21T13:45:54.313Z,101440.81
2022-09-21T13:48:29.428Z,101434.44
2022-09-21T13:51:07.727Z,101442.25
2022-09-21T13:53:41.110Z,101437.16
2022-09-21T13:56:17.466Z,101438.91
2022-09-21T13:58:48.665Z,101443.16
2022-09-21T14:01:45.188Z,101434.06
2022-09-21T14:04:20.840Z,101441.88
2022-09-21T14:06:54.339Z,101427.78
2022-09-21T14:09:27.553Z,101434.03
2022-09-21T14:11:59.129Z,101428.44
2022-09-21T14:14:32.976Z,101434.03
2022-09-21T14:17:01.701Z,101430.53
2022-09-21T14:20:02.947Z,101431.38
2022-09-21T14:23:10.322Z,101434.53
2022-09-21T14:25:53.146Z,101431.56
2022-09-21T14:28:34.810Z,101428.44
2022-09-21T14:31:07.813Z,101431.91
2022-09-21T14:33:45.196Z,101430.63
2022-09-21T14:36:19.196Z,101429.66
2022-09-21T14:38:54.824Z,101421.28
2022-09-21T14:41:25.450Z,101422.69
2022-09-21T14:43:56.523Z,101420.13
2022-09-21T14:46:48.388Z,101419.44
2022-09-21T14:49:32.855Z,101414.75
2022-09-21T14:52:13.440Z,101404.22
2022-09-21T14:54:58.201Z,101412.03
2022-09-21T14:57:40.813Z,101404.50
2022-09-21T15:00:23.308Z,101399.53
2022-09-21T15:03:06.043Z,101404.62
2022-09-21T15:05:38.678Z,101401.94
2022-09-21T15:08:41.729Z,101399.37
2022-09-21T15:11:18.804Z,101390.97
2022-09-21T15:14:14.630Z,101396.66
2022-09-21T15:16:47.078Z,101394.50
2022-09-21T15:19:23.073Z,101389.50
2022-09-21T15:21:53.040Z,101388.34
2022-09-21T15:24:25.849Z,101375.16
2022-09-21T15:27:02.920Z,101376.03
2022-09-21T15:29:32.959Z,101387.97
2022-09-21T15:32:02.217Z,101379.31
2022-09-21T15:34:31.839Z,101382.28
2022-09-21T15:37:17.085Z,101373.75
2022-09-21T15:39:45.419Z,101374.75
2022-09-21T15:42:23.106Z,101369.34
2022-09-21T15:45:06.488Z,101368.94
2022-09-21T15:47:35.198Z,101378.63
2022-09-21T15:50:03.998Z,101378.31
2022-09-21T15:52:37.851Z,101374.06
2022-09-21T15:55:14.915Z,101383.31
2022-09-21T15:57:45.125Z,101377.06
2022-09-21T16:00:21.417Z,101377.78
2022-09-21T16:03:04.252Z,101380.62
2022-09-21T16:05:35.142Z,101376.34
2022-09-21T16:08:10.142Z,101382.69
2022-09-21T16:10:40.908Z,101378.28
2022-09-21T16:13:36.603Z,101376.94
2022-09-21T16:16:06.931Z,101376.50
2022-09-21T16:18:43.245Z,101380.16
2022-09-21T16:21:20.783Z,101378.16
2022-09-21T16:23:50.140Z,101384.38
2022-09-21T16:26:24.888Z,101382.00
2022-09-21T16:29:19.106Z,101387.62
2022-09-21T16:31:50.410Z,101392.38
2022-09-21T16:34:33.006Z,101389.41
2022-09-21T16:37:02.779Z,101387.66
2022-09-21T16:39:30.987Z,101393.22
2022-09-21T16:42:04.560Z,101398.41
2022-09-21T16:44:44.485Z,101395.00
2022-09-21T16:47:15.262Z,101390.41
2022-09-21T16:49:44.351Z,101390.19
2022-09-21T16:52:12.442Z,101391.94
2022-09-21T16:54:40.317Z,101397.81
2022-09-21T16:57:08.510Z,101398.78
2022-09-21T16:59:37.748Z,101394.53
2022-09-21T17:02:05.954Z,101403.72
2022-09-21T17:04:35.694Z,101397.56
2022-09-21T17:07:05.906Z,101397.97
2022-09-21T17:09:35.837Z,101411.66
2022-09-21T17:12:06.913Z,101405.31
2022-09-21T17:14:42.964Z,101402.00
2022-09-21T17:17:18.136Z,101410.56
2022-09-21T17:19:46.914Z,101405.94
2022-09-21T17:22:17.396Z,101418.03
2022-09-21T17:24:50.842Z,101412.06
2022-09-21T17:27:21.235Z,101413.50
2022-09-21T17:29:51.062Z,101410.69
2022-09-21T17:32:21.187Z,101407.50
2022-09-21T17:34:56.460Z,101409.69
2022-09-21T17:37:26.013Z,101401.12
2022-09-21T17:39:54.567Z,101405.16
2022-09-21T17:42:25.724Z,101404.66
2022-09-21T17:45:05.200Z,101411.38
2022-09-21T17:47:34.047Z,101406.13
2022-09-21T17:50:15.619Z,101411.62
2022-09-21T17:53:02.585Z,101406.34
2022-09-21T17:55:32.017Z,101412.94
2022-09-21T17:58:18.650Z,101411.22
2022-09-21T18:00:57.089Z,101413.91
2022-09-21T18:03:28.080Z,101418.72
2022-09-21T18:06:00.772Z,101419.97
2022-09-21T18:08:30.317Z,101424.72
2022-09-21T18:11:26.186Z,101423.34
2022-09-21T18:14:02.841Z,101426.37
2022-09-21T18:16:37.471Z,101426.84
2022-09-21T18:19:21.291Z,101430.75
2022-09-21T18:21:52.627Z,101427.53
2022-09-21T18:24:23.908Z,101432.59
2022-09-21T18:26:54.179Z,101433.16
2022-09-21T18:29:39.508Z,101429.69
2022-09-21T18:32:32.225Z,101429.63
2022-09-21T18:35:15.038Z,101439.94
2022-09-21T18:37:53.540Z,101437.03
2022-09-21T18:40:29.198Z,101436.22
2022-09-21T18:43:04.957Z,101443.44
2022-09-21T18:45:38.947Z,101439.81
2022-09-21T18:48:21.421Z,101441.62
2022-09-21T18:50:59.707Z,101445.91
2022-09-21T18:53:33.910Z,101446.66
2022-09-21T18:56:02.669Z,101447.50
2022-09-21T18:58:31.158Z,101448.13
2022-09-21T19:01:00.263Z,101442.53
2022-09-21T19:03:30.661Z,101441.31
2022-09-21T19:06:22.250Z,101446.53
2022-09-21T19:08:56.358Z,101443.50
2022-09-21T19:11:34.721Z,101446.91
2022-09-21T19:14:12.048Z,101450.09
2022-09-21T19:16:46.355Z,101449.75
2022-09-21T19:19:28.338Z,101447.47
2022-09-21T19:22:03.771Z,101450.53
2022-09-21T19:24:37.927Z,101443.03
2022-09-21T19:27:17.251Z,101444.38
2022-09-21T19:29:54.535Z,101445.62
2022-09-21T19:32:39.548Z,101447.91
2022-09-21T19:35:22.152Z,101451.81
2022-09-21T19:37:51.918Z,101446.09
2022-09-21T19:40:23.482Z,101446.69
2022-09-21T19:43:21.016Z,101451.38
2022-09-21T19:46:11.938Z,101444.97
2022-09-21T19:48:43.660Z,101446.41
2022-09-21T19:51:20.146Z,101443.28
2022-09-21T19:54:13.360Z,101445.16
2022-09-21T19:57:04.610Z,101442.31
2022-09-21T19:59:45.021Z,101450.00
2022-09-21T20:02:15.593Z,101449.66
2022-09-21T20:04:50.101Z,101444.56
2022-09-21T20:07:26.771Z,101442.19
2022-09-21T20:10:08.356Z,101448.56
2022-09-21T20:12:43.915Z,101446.19
2022-09-21T20:15:16.994Z,101439.31
2022-09-21T20:17:50.916Z,101444.72
2022-09-21T20:20:22.710Z,101446.53
2022-09-21T20:22:52.726Z,101442.16
2022-09-21T20:25:25.916Z,101442.44
2022-09-21T20:27:56.218Z,101441.69
2022-09-21T20:30:27.018Z,101438.31
2022-09-21T20:32:57.582Z,101446.47
2022-09-21T20:35:28.056Z,101434.19
2022-09-21T20:38:01.959Z,101442.44
2022-09-21T20:40:32.323Z,101439.03
2022-09-21T20:43:01.655Z,101434.84
2022-09-21T20:45:31.403Z,101437.84
2022-09-21T20:48:12.980Z,101440.72
2022-09-21T20:50:42.196Z,101436.66
2022-09-21T20:53:12.616Z,101438.72
2022-09-21T20:55:41.226Z,101437.19
2022-09-21T20:58:12.548Z,101435.66
2022-09-21T21:00:41.113Z,101432.31
2022-09-21T21:03:09.004Z,101436.00
2022-09-21T21:05:37.168Z,101435.06
2022-09-21T21:08:05.655Z,101441.34
2022-09-21T21:10:34.911Z,101436.19
2022-09-21T21:13:03.036Z,101435.50
2022-09-21T21:15:32.006Z,101435.78
2022-09-21T21:17:59.908Z,101439.81
2022-09-21T21:20:29.019Z,101441.03
2022-09-21T21:22:57.199Z,101442.12
2022-09-21T21:25:25.112Z,101442.50
2022-09-21T21:27:57.381Z,101442.75
2022-09-21T21:30:25.558Z,101442.16
2022-09-21T21:32:53.591Z,101444.19
2022-09-21T21:35:21.531Z,101440.16
2022-09-21T21:37:49.699Z,101442.22
2022-09-21T21:40:17.883Z,101441.47
2022-09-21T21:42:45.865Z,101446.97
2022-09-21T21:45:15.421Z,101448.78
2022-09-21T21:47:43.392Z,101451.53
2022-09-21T21:50:12.007Z,101448.34
2022-09-21T21:52:40.625Z,101445.22
2022-09-21T21:55:10.117Z,101452.69
2022-09-21T21:57:38.062Z,101452.06
2022-09-21T22:00:08.571Z,101452.41
2022-09-21T22:02:37.773Z,101451.63
2022-09-21T22:05:06.694Z,101451.69
2022-09-21T22:07:34.668Z,101450.06
2022-09-21T22:10:03.047Z,101450.22
2022-09-21T22:12:31.656Z,101443.28
2022-09-21T22:14:59.499Z,101444.34
2022-09-21T22:17:27.368Z,101441.16
2022-09-21T22:19:56.826Z,101442.34
2022-09-21T22:22:25.360Z,101443.47
2022-09-21T22:24:53.240Z,101441.78
2022-09-21T22:27:21.563Z,101437.50
2022-09-21T22:29:49.489Z,101436.81
2022-09-21T22:32:17.380Z,101430.84
2022-09-21T22:34:45.471Z,101431.94
2022-09-21T22:37:14.756Z,101432.03
2022-09-21T22:39:42.904Z,101432.94
2022-09-21T22:42:11.534Z,101434.69
2022-09-21T22:44:39.420Z,101430.25
2022-09-21T22:47:07.480Z,101437.56
2022-09-21T22:49:35.567Z,101438.69
2022-09-21T22:52:03.509Z,101437.94
2022-09-21T22:54:32.791Z,101436.31
2022-09-21T22:57:00.994Z,101438.19
2022-09-21T22:59:28.975Z,101428.62
2022-09-21T23:01:56.859Z,101427.09
2022-09-21T23:04:24.979Z,101417.56
2022-09-21T23:06:53.020Z,101428.31
2022-09-21T23:09:22.341Z,101425.00
2022-09-21T23:11:53.883Z,101431.34
2022-09-21T23:14:23.103Z,101429.69
2022-09-21T23:16:51.495Z,101428.12
2022-09-21T23:19:19.331Z,101427.34
2022-09-21T23:21:50.311Z,101423.91
2022-09-21T23:24:19.487Z,101421.31
2022-09-21T23:26:50.407Z,101418.88
2022-09-21T23:29:20.051Z,101418.03
2022-09-21T23:31:48.271Z,101417.94
2022-09-21T23:34:16.981Z,101415.97
2022-09-21T23:36:46.058Z,101427.47
2022-09-21T23:39:15.917Z,101426.47
2022-09-21T23:41:44.663Z,101430.22
2022-09-21T23:44:13.253Z,101416.22
2022-09-21T23:46:42.925Z,101425.06
2022-09-21T23:49:11.349Z,101417.94
2022-09-21T23:51:39.985Z,101425.53
2022-09-21T23:54:08.530Z,101427.09
2022-09-21T23:56:36.668Z,101431.41
2022-09-21T23:59:05.467Z,101426.81
